createdAt,value
2023-03-22T00:00:39.727Z,11.00
2023-03-22T00:03:10.128Z,12.80
2023-03-22T00:05:40.367Z,13.80
2023-03-22T00:08:28.694Z,15.10
2023-03-22T00:10:57.174Z,13.10
2023-03-22T00:13:27.399Z,13.30
2023-03-22T00:15:56.216Z,11.60
2023-03-22T00:18:32.143Z,13.10
2023-03-22T00:21:00.950Z,12.70
2023-03-22T00:23:29.722Z,13.70
2023-03-22T00:25:58.193Z,13.30
2023-03-22T00:28:27.815Z,12.70
2023-03-22T00:31:02.884Z,13.00
2023-03-22T00:33:31.527Z,12.00
2023-03-22T00:36:01.547Z,13.20
2023-03-22T00:38:47.740Z,11.90
2023-03-22T00:41:17.983Z,13.90
2023-03-22T00:43:49.412Z,13.10
2023-03-22T00:46:20.158Z,11.00
2023-03-22T00:48:49.036Z,13.80
2023-03-22T00:51:18.965Z,10.90
2023-03-22T00:53:51.215Z,10.70
2023-03-22T00:56:19.975Z,11.50
2023-03-22T00:58:58.949Z,12.60
2023-03-22T01:01:32.581Z,12.30
2023-03-22T01:04:03.364Z,12.80
2023-03-22T01:06:33.909Z,10.90
2023-03-22T01:09:02.270Z,14.30
2023-03-22T01:11:34.330Z,11.20
2023-03-22T01:14:03.131Z,13.20
2023-03-22T01:16:31.459Z,10.10
2023-03-22T01:19:00.590Z,14.20
2023-03-22T01:21:29.273Z,15.10
2023-03-22T01:23:58.378Z,12.10
2023-03-22T01:26:26.950Z,12.80
2023-03-22T01:28:55.642Z,12.00
2023-03-22T01:31:24.205Z,10.70
2023-03-22T01:33:52.711Z,11.20
2023-03-22T01:36:23.298Z,12.80
2023-03-22T01:38:51.716Z,10.70
2023-03-22T01:41:21.429Z,12.20
2023-03-22T01:44:15.114Z,12.00
2023-03-22T01:46:45.096Z,10.80
2023-03-22T01:49:26.394Z,12.90
2023-03-22T01:51:56.414Z,10.90
2023-03-22T01:54:48.954Z,10.90
2023-03-22T01:57:38.639Z,14.70
2023-03-22T02:00:12.845Z,13.90
2023-03-22T02:03:02.836Z,11.40
2023-03-22T02:05:37.360Z,12.10
2023-03-22T02:08:09.511Z,14.70
2023-03-22T02:10:53.270Z,14.00
2023-03-22T02:13:39.453Z,13.10
2023-03-22T02:17:01.976Z,12.60
2023-03-22T02:20:11.082Z,11.40
2023-03-22T02:23:13.820Z,13.10
2023-03-22T02:26:21.618Z,12.60
2023-03-22T02:28:56.036Z,13.70
2023-03-22T02:31:51.352Z,12.60
2023-03-22T02:35:01.241Z,15.30
2023-03-22T02:37:39.305Z,15.70
2023-03-22T02:40:35.543Z,15.90
2023-03-22T02:43:11.184Z,15.80
2023-03-22T02:45:48.364Z,14.80
2023-03-22T02:48:20.834Z,11.30
2023-03-22T02:50:53.055Z,14.30
2023-03-22T02:53:30.088Z,11.10
2023-03-22T02:56:00.717Z,14.50
2023-03-22T02:58:47.017Z,18.70
2023-03-22T03:01:38.756Z,14.80
2023-03-22T03:04:11.360Z,11.40
2023-03-22T03:06:46.467Z,11.00
2023-03-22T03:09:18.308Z,11.60
2023-03-22T03:11:51.429Z,14.30
2023-03-22T03:14:28.744Z,17.00
2023-03-22T03:17:30.761Z,13.70
2023-03-22T03:20:22.389Z,13.30
2023-03-22T03:23:28.645Z,11.30
2023-03-22T03:26:13.304Z,12.30
2023-03-22T03:28:52.435Z,15.90
2023-03-22T03:31:35.126Z,12.80
2023-03-22T03:34:35.682Z,11.70
2023-03-22T03:37:08.881Z,13.30
2023-03-22T03:39:50.889Z,12.50
2023-03-22T03:42:19.967Z,13.40
2023-03-22T03:44:48.444Z,13.10
2023-03-22T03:47:17.134Z,13.00
2023-03-22T03:49:46.943Z,16.80
2023-03-22T03:52:15.326Z,12.10
2023-03-22T03:54:43.611Z,10.50
2023-03-22T03:57:22.526Z,12.50
2023-03-22T03:59:51.006Z,11.10
2023-03-22T04:02:29.598Z,14.60
2023-03-22T04:05:00.069Z,12.90
2023-03-22T04:07:29.290Z,12.60
2023-03-22T04:09:57.436Z,11.90
2023-03-22T04:15:17.930Z,13.10
2023-03-22T04:17:49.617Z,11.80
2023-03-22T04:20:19.806Z,14.10
2023-03-22T04:22:49.415Z,14.50
2023-03-22T04:25:19.538Z,17.90
2023-03-22T04:27:56.114Z,21.00
2023-03-22T04:30:24.992Z,15.10
2023-03-22T04:33:07.386Z,14.30
2023-03-22T04:35:57.553Z,15.70
2023-03-22T04:38:32.014Z,17.00
2023-03-22T04:41:00.799Z,11.10
2023-03-22T04:43:51.190Z,13.10
2023-03-22T04:46:21.651Z,16.10
2023-03-22T04:49:06.593Z,13.30
2023-03-22T04:51:37.833Z,12.60
2023-03-22T04:54:35.697Z,14.00
2023-03-22T04:57:04.822Z,13.20
2023-03-22T04:59:38.809Z,13.60
2023-03-22T05:02:07.182Z,12.50
2023-03-22T05:04:41.527Z,15.80
2023-03-22T05:07:19.400Z,14.20
2023-03-22T05:09:55.558Z,14.50
2023-03-22T05:12:24.960Z,14.80
2023-03-22T05:15:14.543Z,13.10
2023-03-22T05:17:44.653Z,12.60
2023-03-22T05:20:13.958Z,14.20
2023-03-22T05:22:45.509Z,19.60
2023-03-22T05:25:13.986Z,17.20
2023-03-22T05:27:44.928Z,16.30
2023-03-22T05:30:32.966Z,13.50
2023-03-22T05:33:09.840Z,17.50
2023-03-22T05:35:43.283Z,13.20
2023-03-22T05:38:12.141Z,13.60
2023-03-22T05:40:44.871Z,13.10
2023-03-22T05:43:13.723Z,15.10
2023-03-22T05:45:49.756Z,15.40
2023-03-22T05:48:46.705Z,15.70
2023-03-22T05:51:19.491Z,18.20
2023-03-22T05:53:53.703Z,16.60
2023-03-22T05:56:30.684Z,22.40
2023-03-22T05:59:05.726Z,126.30
2023-03-22T06:01:35.256Z,152.60
2023-03-22T06:04:11.897Z,71.00
2023-03-22T06:07:01.161Z,39.10
2023-03-22T06:09:42.040Z,24.60
2023-03-22T06:12:22.804Z,83.60
2023-03-22T06:14:55.891Z,53.30
2023-03-22T06:17:42.701Z,52.40
2023-03-22T06:20:18.348Z,113.20
2023-03-22T06:22:55.511Z,69.90
2023-03-22T06:25:24.442Z,50.80
2023-03-22T06:27:54.339Z,42.20
2023-03-22T06:30:23.797Z,22.70
2023-03-22T06:33:06.351Z,22.00
2023-03-22T06:35:38.066Z,14.90
2023-03-22T06:38:06.890Z,18.50
2023-03-22T06:40:38.377Z,13.10
2023-03-22T06:43:07.842Z,16.90
2023-03-22T06:45:40.691Z,18.70
2023-03-22T06:48:09.882Z,20.40
2023-03-22T06:50:53.967Z,38.90
2023-03-22T06:53:34.845Z,21.30
2023-03-22T06:56:04.967Z,23.40
2023-03-22T06:58:39.001Z,18.20
2023-03-22T07:01:07.940Z,18.40
2023-03-22T07:03:38.702Z,17.50
2023-03-22T07:06:14.977Z,12.20
2023-03-22T07:08:45.796Z,13.40
2023-03-22T07:11:19.801Z,13.60
2023-03-22T07:13:53.914Z,12.50
2023-03-22T07:16:22.639Z,10.90
2023-03-22T07:19:03.066Z,11.40
2023-03-22T07:21:31.643Z,13.20
2023-03-22T07:30:24.870Z,12.60
2023-03-22T07:32:53.753Z,12.10
2023-03-22T07:35:22.158Z,11.70
2023-03-22T07:37:53.062Z,14.50
2023-03-22T07:40:26.561Z,13.90
2023-03-22T07:42:56.782Z,13.40
2023-03-22T07:45:37.131Z,15.50
2023-03-22T07:48:44.320Z,12.10
2023-03-22T07:51:42.739Z,11.90
2023-03-22T07:54:17.751Z,13.40
2023-03-22T07:56:51.243Z,16.80
2023-03-22T07:59:20.639Z,11.80
2023-03-22T08:01:51.823Z,13.60
2023-03-22T08:04:28.171Z,11.80
2023-03-22T08:07:03.500Z,11.20
2023-03-22T08:09:37.089Z,10.70
2023-03-22T08:12:07.535Z,11.70
2023-03-22T08:14:37.940Z,9.90
2023-03-22T08:17:10.207Z,11.00
2023-03-22T08:19:39.776Z,9.90
2023-03-22T08:22:08.841Z,10.50
2023-03-22T08:24:57.567Z,10.10
2023-03-22T08:27:32.293Z,9.10
2023-03-22T08:30:01.492Z,13.40
2023-03-22T08:32:31.106Z,10.50
2023-03-22T08:34:59.693Z,9.90
2023-03-22T08:37:28.468Z,10.60
2023-03-22T08:39:56.996Z,8.80
2023-03-22T08:42:43.345Z,11.30
2023-03-22T08:45:12.234Z,10.70
2023-03-22T08:47:49.661Z,8.20
2023-03-22T08:50:18.414Z,9.30
2023-03-22T08:52:51.908Z,11.40
2023-03-22T08:55:27.763Z,12.20
2023-03-22T08:58:16.583Z,9.60
2023-03-22T09:00:54.333Z,8.30
2023-03-22T09:03:46.251Z,9.20
2023-03-22T09:06:15.067Z,9.60
2023-03-22T09:08:52.444Z,9.30
2023-03-22T09:11:23.981Z,11.70
2023-03-22T09:13:52.660Z,10.30
2023-03-22T09:16:21.708Z,11.50
2023-03-22T09:18:50.649Z,10.00
2023-03-22T09:21:22.162Z,9.80
2023-03-22T09:23:57.945Z,12.40
2023-03-22T10:07:26.290Z,8.70
2023-03-22T10:10:18.269Z,8.90
2023-03-22T10:12:51.818Z,9.00
2023-03-22T10:15:33.616Z,11.60
2023-03-22T10:18:03.643Z,7.80
2023-03-22T10:20:35.075Z,8.90
2023-03-22T10:25:37.974Z,8.90
2023-03-22T10:28:21.262Z,8.40
2023-03-22T10:30:54.975Z,8.00
2023-03-22T10:33:52.379Z,7.30
2023-03-22T10:36:22.496Z,7.60
2023-03-22T10:38:54.483Z,9.20
2023-03-22T10:41:25.691Z,8.70
2023-03-22T10:43:56.433Z,7.50
2023-03-22T10:48:58.617Z,9.90
2023-03-22T10:54:01.833Z,8.30
2023-03-22T10:56:30.504Z,7.40
2023-03-22T10:59:01.236Z,7.70
2023-03-22T11:01:32.439Z,7.80
2023-03-22T11:04:07.623Z,8.30
2023-03-22T11:06:41.634Z,8.70
2023-03-22T11:09:16.771Z,9.60
2023-03-22T11:11:53.467Z,7.60
2023-03-22T11:14:31.350Z,9.60
2023-03-22T11:17:00.464Z,8.70
2023-03-22T11:19:37.315Z,8.10
2023-03-22T11:22:16.136Z,8.10
2023-03-22T11:24:46.056Z,9.20
2023-03-22T11:27:20.880Z,8.40
2023-03-22T11:29:51.004Z,8.20
2023-03-22T11:32:35.680Z,7.90
2023-03-22T11:35:18.073Z,9.10
2023-03-22T11:37:51.001Z,7.60
2023-03-22T11:40:27.697Z,8.30
2023-03-22T11:43:17.417Z,7.70
2023-03-22T11:45:46.125Z,9.80
2023-03-22T11:48:16.922Z,8.80
2023-03-22T11:50:45.624Z,12.10
2023-03-22T11:53:16.972Z,9.40
2023-03-22T11:55:45.673Z,7.90
2023-03-22T11:58:44.535Z,8.40
2023-03-22T12:01:16.407Z,8.80
2023-03-22T12:06:32.368Z,9.80
2023-03-22T12:09:19.517Z,8.30
2023-03-22T12:11:56.496Z,8.90
2023-03-22T12:14:29.296Z,8.30
2023-03-22T12:17:27.069Z,8.60
2023-03-22T12:20:24.816Z,8.30
2023-03-22T12:22:54.629Z,7.20
2023-03-22T12:25:32.337Z,8.70
2023-03-22T12:28:07.274Z,9.50
2023-03-22T12:30:47.596Z,8.80
2023-03-22T12:33:32.416Z,9.20
2023-03-22T12:36:02.913Z,7.80
2023-03-22T12:38:54.121Z,10.60
2023-03-22T12:41:35.220Z,9.20
2023-03-22T13:04:36.175Z,8.20
2023-03-22T13:07:13.888Z,8.20
2023-03-22T13:09:50.138Z,8.40
2023-03-22T13:12:24.854Z,7.80
2023-03-22T13:14:56.556Z,9.00
2023-03-22T13:17:25.328Z,8.30
2023-03-22T13:20:11.806Z,9.10
2023-03-22T13:22:43.453Z,11.00
2023-03-22T13:25:23.917Z,9.50
2023-03-22T13:28:12.774Z,8.00
2023-03-22T13:30:53.950Z,8.40
2023-03-22T13:33:26.430Z,8.40
2023-03-22T13:36:07.057Z,9.20
2023-03-22T13:38:46.324Z,8.40
2023-03-22T13:41:27.933Z,9.20
2023-03-22T13:44:00.184Z,8.00
2023-03-22T13:46:38.310Z,9.30
2023-03-22T13:49:20.820Z,8.80
2023-03-22T13:51:49.692Z,9.30
2023-03-22T13:54:21.542Z,8.20
2023-03-22T13:56:57.390Z,8.90
2023-03-22T13:59:27.590Z,8.00
2023-03-22T14:02:05.084Z,9.00
2023-03-22T14:04:56.429Z,9.80
2023-03-22T14:07:37.349Z,9.80
2023-03-22T14:10:42.205Z,10.20
2023-03-22T14:13:17.475Z,8.50
2023-03-22T14:15:56.146Z,10.00
2023-03-22T14:18:26.990Z,9.70
2023-03-22T14:21:00.021Z,8.80
